createdAt,value
2023-01-09T00:00:02.564Z,7.23
2023-01-09T00:03:30.319Z,7.21
2023-01-09T00:06:58.114Z,7.19
2023-01-09T00:10:26.029Z,7.21
2023-01-09T00:13:53.847Z,7.22
2023-01-09T00:17:21.551Z,7.25
2023-01-09T00:20:49.340Z,7.20
2023-01-09T00:24:17.274Z,7.23
2023-01-09T00:27:45.001Z,7.20
2023-01-09T00:31:12.898Z,7.22
2023-01-09T00:34:40.839Z,7.19
2023-01-09T00:38:08.375Z,7.13
2023-01-09T00:41:35.987Z,7.14
2023-01-09T00:45:03.886Z,7.10
2023-01-09T00:48:31.540Z,7.09
2023-01-09T00:52:00.583Z,7.06
2023-01-09T00:55:27.788Z,7.03
2023-01-09T00:58:55.436Z,7.04
2023-01-09T01:02:23.353Z,7.03
2023-01-09T01:05:50.828Z,7.06
2023-01-09T01:09:18.270Z,7.08
2023-01-09T01:12:45.893Z,7.09
2023-01-09T01:16:13.676Z,7.12
2023-01-09T01:19:41.858Z,7.13
2023-01-09T01:22:51.709Z,7.17
2023-01-09T01:26:19.405Z,7.19
2023-01-09T01:29:47.030Z,7.19
2023-01-09T01:33:14.784Z,7.20
2023-01-09T01:36:42.417Z,7.23
2023-01-09T01:40:10.232Z,7.21
2023-01-09T01:43:37.888Z,7.17
2023-01-09T01:47:05.807Z,7.13
2023-01-09T01:50:33.601Z,7.12
2023-01-09T01:53:41.549Z,7.09
2023-01-09T01:57:09.200Z,7.11
2023-01-09T02:00:36.756Z,7.13
2023-01-09T02:04:04.481Z,7.11
2023-01-09T02:07:32.595Z,7.13
2023-01-09T02:10:40.828Z,7.14
2023-01-09T02:14:08.591Z,7.12
2023-01-09T02:17:36.401Z,7.10
2023-01-09T02:21:04.186Z,7.05
2023-01-09T02:24:31.979Z,7.01
2023-01-09T02:27:59.554Z,6.94
2023-01-09T02:31:27.352Z,6.95
2023-01-09T02:34:54.854Z,6.93
2023-01-09T02:38:22.607Z,6.91
2023-01-09T02:41:52.058Z,6.85
2023-01-09T02:45:19.962Z,6.72
2023-01-09T02:48:28.647Z,6.71
2023-01-09T02:51:56.874Z,6.68
2023-01-09T02:55:24.552Z,6.65
2023-01-09T02:58:52.057Z,6.63
2023-01-09T03:02:19.797Z,6.61
2023-01-09T03:05:47.505Z,6.56
2023-01-09T03:08:55.573Z,6.49
2023-01-09T03:12:23.167Z,6.45
2023-01-09T03:15:50.897Z,6.42
2023-01-09T03:19:18.732Z,6.36
2023-01-09T03:22:47.373Z,6.32
2023-01-09T03:26:15.017Z,6.30
2023-01-09T03:29:42.801Z,6.28
2023-01-09T03:33:10.623Z,6.26
2023-01-09T03:36:19.242Z,6.23
2023-01-09T03:39:46.866Z,6.23
2023-01-09T03:43:14.529Z,6.21
2023-01-09T03:46:42.224Z,6.18
2023-01-09T03:50:09.990Z,6.15
2023-01-09T03:53:37.738Z,6.13
2023-01-09T03:57:05.731Z,6.10
2023-01-09T04:00:33.475Z,6.08
2023-01-09T04:04:01.257Z,6.05
2023-01-09T04:07:10.854Z,6.03
2023-01-09T04:10:38.510Z,5.99
2023-01-09T04:14:06.191Z,5.97
2023-01-09T04:17:34.186Z,5.93
2023-01-09T04:21:01.946Z,5.90
2023-01-09T04:24:30.125Z,5.89
2023-01-09T04:27:57.769Z,5.86
2023-01-09T04:31:25.432Z,5.86
2023-01-09T04:34:53.027Z,5.85
2023-01-09T04:38:20.661Z,5.82
2023-01-09T04:41:48.639Z,5.78
2023-01-09T04:45:16.746Z,5.75
2023-01-09T04:48:44.341Z,5.75
2023-01-09T04:52:11.902Z,5.71
2023-01-09T04:55:39.569Z,5.71
2023-01-09T04:59:07.206Z,5.65
2023-01-09T05:02:34.850Z,5.62
2023-01-09T05:06:02.661Z,5.58
2023-01-09T05:09:11.455Z,5.57
2023-01-09T05:12:26.897Z,5.56
2023-01-09T05:15:34.525Z,5.54
2023-01-09T05:19:02.216Z,5.50
2023-01-09T05:22:30.121Z,5.47
2023-01-09T05:25:58.033Z,5.45
2023-01-09T05:29:25.729Z,5.43
2023-01-09T05:32:54.485Z,5.44
2023-01-09T05:36:21.295Z,5.43
2023-01-09T05:39:49.128Z,5.39
2023-01-09T05:43:12.480Z,5.41
2023-01-09T05:46:40.251Z,5.38
2023-01-09T05:50:07.899Z,5.42
2023-01-09T05:53:35.541Z,5.46
2023-01-09T05:57:03.402Z,5.45
2023-01-09T06:00:33.919Z,5.39
2023-01-09T06:04:01.595Z,5.38
2023-01-09T06:07:10.457Z,5.34
2023-01-09T06:10:38.276Z,5.34
2023-01-09T06:14:06.020Z,5.33
2023-01-09T06:17:33.575Z,5.30
2023-01-09T06:21:01.382Z,5.30
2023-01-09T06:24:29.084Z,5.29
2023-01-09T06:27:56.774Z,5.32
2023-01-09T06:31:24.439Z,5.35
2023-01-09T06:34:52.121Z,5.39
2023-01-09T06:38:19.731Z,5.42
2023-01-09T06:41:48.599Z,5.48
2023-01-09T06:44:55.949Z,5.54
2023-01-09T06:48:23.631Z,5.59
2023-01-09T06:51:51.321Z,5.60
2023-01-09T06:55:01.149Z,5.65
2023-01-09T06:58:28.842Z,5.71
2023-01-09T07:01:56.723Z,5.74
2023-01-09T07:05:24.043Z,5.78
2023-01-09T07:08:51.726Z,5.83
2023-01-09T07:12:19.786Z,5.86
2023-01-09T07:15:47.357Z,5.87
2023-01-09T07:18:55.238Z,5.93
2023-01-09T07:22:04.099Z,5.93
2023-01-09T07:25:31.798Z,5.97
2023-01-09T07:28:59.604Z,6.02
2023-01-09T07:32:27.398Z,6.04
2023-01-09T07:35:35.490Z,6.13
2023-01-09T07:39:03.234Z,6.25
2023-01-09T07:42:30.987Z,6.34
2023-01-09T07:46:00.676Z,6.45
2023-01-09T07:49:28.223Z,6.56
2023-01-09T07:52:55.997Z,6.61
2023-01-09T07:56:23.690Z,6.71
2023-01-09T07:59:33.276Z,6.81
2023-01-09T08:03:01.058Z,6.86
2023-01-09T08:06:09.906Z,6.94
2023-01-09T08:09:37.759Z,7.00
2023-01-09T08:13:05.322Z,7.06
2023-01-09T08:16:32.896Z,7.10
2023-01-09T08:20:00.730Z,7.16
2023-01-09T08:23:28.339Z,7.18
2023-01-09T08:26:37.232Z,7.23
2023-01-09T08:30:05.226Z,7.33
2023-01-09T08:33:32.830Z,7.37
2023-01-09T08:36:22.119Z,7.41
2023-01-09T08:39:49.813Z,7.46
2023-01-09T08:42:59.376Z,7.49
2023-01-09T08:45:48.234Z,7.55
2023-01-09T08:49:15.697Z,7.63
2023-01-09T08:52:43.372Z,7.70
2023-01-09T08:56:11.380Z,7.77
2023-01-09T08:59:39.093Z,7.82
2023-01-09T09:03:06.762Z,7.86
2023-01-09T09:06:34.238Z,7.81
2023-01-09T09:10:02.047Z,7.87
2023-01-09T09:13:29.762Z,7.86
2023-01-09T09:16:57.536Z,7.93
2023-01-09T09:20:25.523Z,8.04
2023-01-09T09:23:53.321Z,8.12
2023-01-09T09:27:20.765Z,8.14
2023-01-09T09:30:48.880Z,8.25
2023-01-09T09:34:16.528Z,8.32
2023-01-09T09:37:44.305Z,8.40
2023-01-09T09:41:12.130Z,8.50
2023-01-09T09:44:43.725Z,8.57
2023-01-09T09:48:07.894Z,8.69
2023-01-09T09:51:35.618Z,8.79
2023-01-09T09:55:03.539Z,8.89
2023-01-09T09:58:31.113Z,9.00
2023-01-09T10:01:56.242Z,9.10
2023-01-09T10:05:22.703Z,9.22
2023-01-09T10:08:50.681Z,9.33
2023-01-09T10:12:18.252Z,9.40
2023-01-09T10:15:45.877Z,9.44
2023-01-09T10:19:13.831Z,9.53
2023-01-09T10:22:41.456Z,9.63
2023-01-09T10:26:09.271Z,9.73
2023-01-09T10:29:36.946Z,9.82
2023-01-09T10:33:04.576Z,9.95
2023-01-09T10:36:28.506Z,10.06
2023-01-09T10:39:40.230Z,10.14
2023-01-09T10:43:08.001Z,10.18
2023-01-09T10:46:37.463Z,10.27
2023-01-09T10:50:03.424Z,10.31
2023-01-09T10:53:31.195Z,10.19
2023-01-09T10:56:58.931Z,10.15
2023-01-09T11:00:07.818Z,10.14
2023-01-09T11:03:15.781Z,10.07
2023-01-09T11:06:43.502Z,10.09
2023-01-09T11:09:52.036Z,10.05
2023-01-09T11:13:19.692Z,10.07
2023-01-09T11:16:47.325Z,9.99
2023-01-09T11:20:15.249Z,9.95
2023-01-09T11:23:43.091Z,9.90
2023-01-09T11:27:10.907Z,9.87
2023-01-09T11:30:20.516Z,9.85
2023-01-09T11:33:48.326Z,9.79
2023-01-09T11:36:57.980Z,9.69
2023-01-09T11:40:25.705Z,9.63
2023-01-09T11:43:53.669Z,9.55
2023-01-09T11:46:24.387Z,9.43
2023-01-09T11:49:51.890Z,9.36
2023-01-09T11:53:19.560Z,9.37
2023-01-09T11:56:09.181Z,9.34
2023-01-09T11:59:17.875Z,9.28
2023-01-09T12:02:45.649Z,9.23
2023-01-09T12:06:13.499Z,9.13
2023-01-09T12:09:41.400Z,9.11
2023-01-09T12:13:09.113Z,9.13
2023-01-09T12:16:17.091Z,9.17
2023-01-09T12:19:06.120Z,9.18
2023-01-09T12:22:15.841Z,9.21
2023-01-09T12:25:04.522Z,9.22
2023-01-09T12:28:32.466Z,9.25
2023-01-09T12:32:00.278Z,9.23
2023-01-09T12:35:27.969Z,9.31
2023-01-09T12:38:36.151Z,9.28
2023-01-09T12:42:04.018Z,9.28
2023-01-09T12:45:31.823Z,9.35
2023-01-09T12:48:59.436Z,9.33
2023-01-09T12:52:09.180Z,9.33
2023-01-09T12:55:17.756Z,9.34
2023-01-09T12:58:45.376Z,9.34
2023-01-09T13:02:13.252Z,9.29
2023-01-09T13:05:21.804Z,9.29
2023-01-09T13:08:49.630Z,9.30
2023-01-09T13:12:17.419Z,9.33
2023-01-09T13:15:45.230Z,9.42
2023-01-09T13:19:12.777Z,9.46
2023-01-09T13:22:40.637Z,9.50
2023-01-09T13:26:08.439Z,9.57
2023-01-09T13:29:36.198Z,9.57
2023-01-09T13:33:03.646Z,9.64
2023-01-09T13:36:13.484Z,9.64
2023-01-09T13:39:41.197Z,9.64
2023-01-09T13:42:37.955Z,9.63
2023-01-09T13:45:46.115Z,9.62
2023-01-09T13:48:34.404Z,9.61
2023-01-09T13:52:02.133Z,9.54
2023-01-09T13:55:17.628Z,9.53
2023-01-09T13:58:25.213Z,9.40
2023-01-09T14:01:34.284Z,9.43
2023-01-09T14:04:43.138Z,9.40
2023-01-09T14:07:51.634Z,9.34
2023-01-09T14:11:00.469Z,9.34
2023-01-09T14:14:28.477Z,9.31
2023-01-09T14:17:37.247Z,9.31
2023-01-09T14:24:32.749Z,9.30
2023-01-09T14:28:00.415Z,9.29
2023-01-09T14:30:29.717Z,9.26
2023-01-09T14:33:37.931Z,9.26
2023-01-09T14:37:05.678Z,9.25
2023-01-09T14:40:33.517Z,9.22
2023-01-09T14:43:24.031Z,9.20
2023-01-09T14:46:51.659Z,9.21
2023-01-09T14:50:19.289Z,9.16
2023-01-09T14:53:27.595Z,9.13
2023-01-09T14:56:56.352Z,9.05
2023-01-09T15:00:23.986Z,9.00
2023-01-09T15:03:51.656Z,8.96
2023-01-09T15:07:19.515Z,8.90
2023-01-09T15:10:47.337Z,8.90
2023-01-09T15:13:56.143Z,8.88
2023-01-09T15:17:23.947Z,8.89
2023-01-09T15:20:35.603Z,8.92
2023-01-09T15:24:03.191Z,8.95
2023-01-09T15:27:30.858Z,8.98
2023-01-09T15:30:58.507Z,9.02
2023-01-09T15:33:48.188Z,9.03
2023-01-09T15:37:15.905Z,9.06
2023-01-09T15:40:43.541Z,9.06
2023-01-09T15:44:11.268Z,9.05
2023-01-09T15:47:38.998Z,9.07
2023-01-09T15:51:06.757Z,9.12
2023-01-09T15:54:15.456Z,9.17
2023-01-09T15:57:43.066Z,9.21
2023-01-09T16:00:55.235Z,9.24
2023-01-09T16:03:44.935Z,9.24
2023-01-09T16:06:34.095Z,9.23
2023-01-09T16:10:01.933Z,9.20
2023-01-09T16:13:29.455Z,9.20
2023-01-09T16:16:57.301Z,9.21
2023-01-09T16:20:25.258Z,9.18
2023-01-09T16:23:53.038Z,9.18
2023-01-09T16:27:20.632Z,9.21
2023-01-09T16:30:48.269Z,9.19
2023-01-09T16:34:16.186Z,9.18
2023-01-09T16:37:43.743Z,9.18
2023-01-09T16:40:52.230Z,9.15
2023-01-09T16:44:19.676Z,9.16
2023-01-09T16:47:47.352Z,9.19
2023-01-09T16:51:15.083Z,9.22
2023-01-09T16:54:42.838Z,9.25
2023-01-09T16:58:10.543Z,9.28
2023-01-09T17:01:38.092Z,9.27
2023-01-09T17:05:05.594Z,9.25
2023-01-09T17:08:33.343Z,9.23
2023-01-09T17:12:00.907Z,9.24
2023-01-09T17:15:28.660Z,9.25
2023-01-09T17:18:56.478Z,9.25
2023-01-09T17:22:24.115Z,9.23
2023-01-09T17:25:51.702Z,9.22
2023-01-09T17:29:19.355Z,9.23
2023-01-09T17:32:27.871Z,9.23
2023-01-09T17:35:55.375Z,9.25
2023-01-09T17:39:22.957Z,9.26
2023-01-09T17:42:50.715Z,9.26
2023-01-09T17:46:18.279Z,9.27
2023-01-09T17:49:45.957Z,9.27
2023-01-09T17:52:54.460Z,9.26
2023-01-09T17:56:22.099Z,9.25
2023-01-09T17:59:49.987Z,9.24
2023-01-09T18:03:17.724Z,9.23
2023-01-09T18:06:45.261Z,9.21
2023-01-09T18:09:52.860Z,9.21
2023-01-09T18:13:20.610Z,9.24
2023-01-09T18:16:48.355Z,9.26
2023-01-09T18:20:16.195Z,9.20
2023-01-09T18:23:44.034Z,9.20
2023-01-09T18:27:11.953Z,9.20
2023-01-09T18:30:39.571Z,9.21
2023-01-09T18:33:48.456Z,9.20
2023-01-09T18:37:16.205Z,9.20
2023-01-09T18:40:43.857Z,9.21
2023-01-09T18:44:11.541Z,9.21
2023-01-09T18:47:39.321Z,9.19
2023-01-09T18:50:27.678Z,9.18
2023-01-09T18:53:55.257Z,9.12
2023-01-09T18:57:23.153Z,9.05
2023-01-09T19:00:50.722Z,9.02
2023-01-09T19:04:19.028Z,8.98
2023-01-09T19:07:46.581Z,8.95
2023-01-09T19:10:56.267Z,8.94
2023-01-09T19:14:23.877Z,8.92
2023-01-09T19:17:31.677Z,8.92
2023-01-09T19:20:59.788Z,8.93
2023-01-09T19:24:27.423Z,8.87
2023-01-09T19:27:36.415Z,8.86
2023-01-09T19:31:04.033Z,8.88
2023-01-09T19:34:31.854Z,8.89
2023-01-09T19:37:59.481Z,8.87
2023-01-09T19:41:08.227Z,8.89
2023-01-09T19:44:35.838Z,8.86
2023-01-09T19:48:03.512Z,8.84
2023-01-09T19:51:30.976Z,8.82
2023-01-09T19:54:58.807Z,8.77
2023-01-09T19:58:27.882Z,8.69
2023-01-09T20:01:54.536Z,8.60
2023-01-09T20:05:02.361Z,8.54
2023-01-09T20:08:11.007Z,8.45
2023-01-09T20:11:38.884Z,8.39
2023-01-09T20:15:06.492Z,8.19
2023-01-09T20:18:34.138Z,8.10
2023-01-09T20:21:42.751Z,8.05
2023-01-09T20:25:10.456Z,8.00
2023-01-09T20:28:38.127Z,7.94
2023-01-09T20:32:06.029Z,7.90
2023-01-09T20:35:33.687Z,7.89
2023-01-09T20:39:01.321Z,7.86
2023-01-09T20:42:09.928Z,7.84
2023-01-09T20:45:18.827Z,7.81
2023-01-09T20:48:46.536Z,7.75
2023-01-09T20:52:14.356Z,7.74
2023-01-09T20:55:42.428Z,7.68
2023-01-09T20:58:53.993Z,7.65
2023-01-09T21:02:22.895Z,7.61
2023-01-09T21:05:50.782Z,7.59
2023-01-09T21:09:19.711Z,7.60
2023-01-09T21:12:48.510Z,7.57
2023-01-09T21:16:16.214Z,7.54
2023-01-09T21:19:43.940Z,7.55
2023-01-09T21:23:11.890Z,7.56
2023-01-09T21:26:39.697Z,7.55
2023-01-09T21:29:47.903Z,7.53
2023-01-09T21:32:56.348Z,7.54
2023-01-09T21:36:23.869Z,7.53
2023-01-09T21:39:51.308Z,7.53
2023-01-09T21:43:18.902Z,7.56
2023-01-09T21:46:47.369Z,7.55
2023-01-09T21:49:55.266Z,7.54
2023-01-09T21:53:22.832Z,7.52
2023-01-09T21:56:31.747Z,7.55
2023-01-09T21:59:59.303Z,7.57
2023-01-09T22:03:27.090Z,7.56
2023-01-09T22:06:54.610Z,7.57
2023-01-09T22:10:18.903Z,7.58
2023-01-09T22:13:46.660Z,7.56
2023-01-09T22:17:14.255Z,7.58
2023-01-09T22:20:42.177Z,7.58
2023-01-09T22:24:10.140Z,7.59
2023-01-09T22:27:38.137Z,7.62
2023-01-09T22:31:05.833Z,7.64
2023-01-09T22:34:33.568Z,7.65
2023-01-09T22:37:42.218Z,7.68
2023-01-09T22:41:09.961Z,7.65
2023-01-09T22:44:46.168Z,7.66
2023-01-09T22:48:13.924Z,7.68
2023-01-09T22:51:41.766Z,7.65
2023-01-09T22:54:45.858Z,7.63
2023-01-09T22:58:13.676Z,7.60
2023-01-09T23:01:41.301Z,7.59
2023-01-09T23:05:08.779Z,7.59
2023-01-09T23:08:36.579Z,7.57
2023-01-09T23:11:24.741Z,7.59
2023-01-09T23:14:33.805Z,7.59
2023-01-09T23:17:42.445Z,7.60
2023-01-09T23:21:09.865Z,7.60
2023-01-09T23:24:37.591Z,7.62
2023-01-09T23:28:05.321Z,7.62
2023-01-09T23:31:32.942Z,7.63
2023-01-09T23:35:00.638Z,7.66
2023-01-09T23:38:08.924Z,7.64
2023-01-09T23:41:36.584Z,7.64
2023-01-09T23:44:44.887Z,7.65
2023-01-09T23:48:12.381Z,7.68
2023-01-09T23:51:42.942Z,7.68
2023-01-09T23:54:53.821Z,7.73
2023-01-09T23:58:03.496Z,7.76
